createdAt,value
2022-08-17T00:00:43.930Z,33.30
2022-08-17T00:03:19.693Z,33.08
2022-08-17T00:05:52.761Z,33.29
2022-08-17T00:08:25.490Z,33.64
2022-08-17T00:10:54.203Z,33.21
2022-08-17T00:13:26.085Z,33.74
2022-08-17T00:15:57.187Z,33.52
2022-08-17T00:19:06.680Z,34.21
2022-08-17T00:21:13.921Z,33.38
2022-08-17T00:23:44.285Z,33.95
2022-08-17T00:26:15.512Z,33.45
2022-08-17T00:29:04.873Z,33.55
2022-08-17T00:31:32.535Z,33.71
2022-08-17T00:33:59.954Z,33.86
2022-08-17T00:36:27.451Z,33.54
2022-08-17T00:38:54.971Z,33.67
2022-08-17T00:41:26.297Z,33.70
2022-08-17T00:43:56.684Z,33.37
2022-08-17T00:46:28.799Z,33.02
2022-08-17T00:48:56.510Z,32.74
2022-08-17T00:51:30.859Z,32.83
2022-08-17T00:54:03.202Z,33.53
2022-08-17T00:56:33.399Z,33.57
2022-08-17T00:59:02.498Z,33.63
2022-08-17T01:01:32.509Z,33.66
2022-08-17T01:04:00.924Z,34.32
2022-08-17T01:06:29.784Z,33.88
2022-08-17T01:08:59.689Z,34.82
2022-08-17T01:11:27.925Z,34.17
2022-08-17T01:13:55.353Z,33.90
2022-08-17T01:16:26.799Z,33.79
2022-08-17T01:18:58.524Z,33.89
2022-08-17T01:21:31.855Z,33.46
2022-08-17T01:24:01.234Z,33.22
2022-08-17T01:26:32.080Z,33.26
2022-08-17T01:29:00.073Z,33.29
2022-08-17T01:31:33.012Z,32.03
2022-08-17T01:34:03.261Z,31.04
2022-08-17T01:36:30.721Z,30.04
2022-08-17T01:38:58.116Z,32.26
2022-08-17T01:41:28.454Z,32.87
2022-08-17T01:44:02.784Z,33.14
2022-08-17T01:46:33.615Z,33.09
2022-08-17T01:49:01.801Z,33.12
2022-08-17T01:51:31.897Z,33.01
2022-08-17T01:54:02.470Z,32.40
2022-08-17T01:56:34.290Z,32.99
2022-08-17T01:59:01.965Z,33.35
2022-08-17T02:01:31.472Z,33.35
2022-08-17T02:04:01.145Z,33.68
2022-08-17T02:06:31.330Z,33.94
2022-08-17T02:09:16.629Z,33.06
2022-08-17T02:11:46.387Z,33.55
2022-08-17T02:14:14.362Z,33.52
2022-08-17T02:16:41.992Z,33.04
2022-08-17T02:19:15.965Z,33.39
2022-08-17T02:21:45.144Z,33.57
2022-08-17T02:24:58.202Z,33.58
2022-08-17T02:27:09.593Z,33.64
2022-08-17T02:29:37.085Z,33.59
2022-08-17T02:32:05.237Z,33.91
2022-08-17T02:34:32.733Z,33.53
2022-08-17T02:37:00.138Z,33.14
2022-08-17T02:39:27.562Z,33.11
2022-08-17T02:42:01.035Z,33.99
2022-08-17T02:44:39.220Z,33.90
2022-08-17T02:47:09.118Z,33.43
2022-08-17T02:49:36.916Z,33.28
2022-08-17T02:52:06.447Z,34.33
2022-08-17T02:54:39.888Z,34.34
2022-08-17T02:57:10.458Z,34.66
2022-08-17T02:59:39.931Z,34.73
2022-08-17T03:02:09.915Z,35.27
2022-08-17T03:04:37.901Z,34.89
2022-08-17T03:07:05.656Z,34.86
2022-08-17T03:09:33.330Z,34.62
2022-08-17T03:12:05.285Z,34.86
2022-08-17T03:14:32.671Z,35.34
2022-08-17T03:17:01.477Z,34.82
2022-08-17T03:19:28.838Z,34.39
2022-08-17T03:21:58.277Z,34.00
2022-08-17T03:24:28.864Z,35.21
2022-08-17T03:26:56.446Z,34.46
2022-08-17T03:29:24.304Z,35.16
2022-08-17T03:31:51.698Z,34.81
2022-08-17T03:34:20.537Z,34.40
2022-08-17T03:36:47.908Z,34.86
2022-08-17T03:39:15.345Z,34.88
2022-08-17T03:41:42.756Z,34.92
2022-08-17T03:44:10.182Z,35.27
2022-08-17T03:46:37.570Z,35.54
2022-08-17T03:49:06.707Z,35.29
2022-08-17T03:51:35.522Z,34.38
2022-08-17T03:54:03.016Z,34.18
2022-08-17T03:56:35.514Z,34.12
2022-08-17T03:59:02.902Z,34.48
2022-08-17T04:01:30.376Z,34.15
2022-08-17T04:03:57.846Z,34.31
2022-08-17T04:06:25.293Z,33.73
2022-08-17T04:08:54.141Z,33.59
2022-08-17T04:11:21.573Z,33.67
2022-08-17T04:13:48.964Z,33.42
2022-08-17T04:16:16.389Z,34.15
2022-08-17T04:18:43.794Z,33.94
2022-08-17T04:21:11.302Z,33.93
2022-08-17T04:23:38.733Z,34.15
2022-08-17T04:26:07.677Z,34.41
2022-08-17T04:28:35.088Z,34.40
2022-08-17T04:31:02.504Z,34.35
2022-08-17T04:33:30.492Z,34.29
2022-08-17T04:35:59.954Z,34.58
2022-08-17T04:38:30.834Z,34.42
2022-08-17T04:41:00.090Z,34.75
2022-08-17T04:43:30.827Z,33.61
2022-08-17T04:46:00.385Z,34.03
2022-08-17T04:48:36.138Z,34.29
2022-08-17T04:51:07.753Z,34.07
2022-08-17T04:53:35.310Z,34.32
2022-08-17T04:56:02.811Z,34.09
2022-08-17T04:58:32.197Z,33.59
2022-08-17T05:00:59.952Z,33.72
2022-08-17T05:03:28.083Z,33.59
2022-08-17T05:05:56.068Z,33.64
2022-08-17T05:08:23.588Z,33.21
2022-08-17T05:10:50.984Z,33.10
2022-08-17T05:13:20.709Z,33.54
2022-08-17T05:15:49.889Z,32.82
2022-08-17T05:18:17.739Z,34.90
2022-08-17T05:20:45.524Z,33.25
2022-08-17T05:23:16.146Z,32.78
2022-08-17T05:25:47.403Z,33.78
2022-08-17T05:28:16.155Z,33.22
2022-08-17T05:30:44.589Z,33.07
2022-08-17T05:33:15.424Z,33.09
2022-08-17T05:35:45.067Z,32.77
2022-08-17T05:38:12.085Z,33.16
2022-08-17T05:40:39.836Z,32.68
2022-08-17T05:43:11.284Z,32.64
2022-08-17T05:45:54.856Z,32.13
2022-08-17T05:48:35.562Z,32.07
2022-08-17T05:51:43.316Z,31.95
2022-08-17T05:54:37.627Z,31.79
2022-08-17T05:57:20.885Z,31.60
2022-08-17T05:59:58.325Z,31.80
2022-08-17T06:02:48.366Z,31.86
2022-08-17T06:05:38.952Z,31.86
2022-08-17T06:08:15.425Z,32.34
2022-08-17T06:10:47.387Z,31.57
2022-08-17T06:13:31.583Z,30.94
2022-08-17T06:16:04.722Z,31.59
2022-08-17T06:18:57.474Z,31.15
2022-08-17T06:21:30.399Z,31.60
2022-08-17T06:24:06.765Z,30.40
2022-08-17T06:26:42.757Z,31.66
2022-08-17T06:29:21.087Z,31.30
2022-08-17T06:31:48.487Z,31.37
2022-08-17T06:34:15.999Z,30.94
2022-08-17T06:36:51.420Z,31.15
2022-08-17T06:39:40.059Z,31.29
2022-08-17T06:42:54.883Z,30.92
2022-08-17T06:45:10.871Z,30.73
2022-08-17T06:47:53.048Z,30.69
2022-08-17T06:50:25.776Z,30.71
2022-08-17T06:52:58.483Z,31.74
2022-08-17T06:55:37.310Z,31.07
2022-08-17T06:58:15.954Z,31.60
2022-08-17T07:00:46.986Z,30.55
2022-08-17T07:03:26.556Z,30.61
2022-08-17T07:05:57.019Z,31.33
2022-08-17T07:08:34.626Z,31.67
2022-08-17T07:11:05.338Z,30.95
2022-08-17T07:13:42.342Z,31.73
2022-08-17T07:16:17.933Z,30.52
2022-08-17T07:18:45.908Z,30.40
2022-08-17T07:21:22.941Z,31.38
2022-08-17T07:24:28.110Z,32.27
2022-08-17T07:27:10.235Z,31.55
2022-08-17T07:29:41.849Z,31.51
2022-08-17T07:32:11.584Z,31.30
2022-08-17T07:34:57.099Z,31.81
2022-08-17T07:37:24.463Z,30.74
2022-08-17T07:40:14.920Z,31.16
2022-08-17T07:42:44.926Z,30.99
2022-08-17T07:45:15.273Z,31.06
2022-08-17T07:47:50.228Z,30.67
2022-08-17T07:50:26.450Z,30.57
2022-08-17T07:52:53.868Z,30.36
2022-08-17T07:55:31.608Z,30.58
2022-08-17T07:57:59.682Z,30.79
2022-08-17T08:00:32.704Z,30.89
2022-08-17T08:03:04.847Z,30.67
2022-08-17T08:05:49.744Z,30.91
2022-08-17T08:08:30.021Z,30.75
2022-08-17T08:11:03.908Z,31.00
2022-08-17T08:13:32.585Z,30.85
2022-08-17T08:16:21.074Z,30.80
2022-08-17T08:18:55.517Z,30.65
2022-08-17T08:21:33.477Z,30.41
2022-08-17T08:24:18.130Z,30.40
2022-08-17T08:26:55.624Z,30.55
2022-08-17T08:29:31.891Z,29.33
2022-08-17T08:32:11.251Z,29.32
2022-08-17T08:35:02.217Z,29.89
2022-08-17T08:37:43.109Z,29.29
2022-08-17T08:40:28.543Z,29.44
2022-08-17T08:43:06.584Z,29.55
2022-08-17T08:45:47.035Z,29.26
2022-08-17T08:48:55.657Z,29.54
2022-08-17T08:51:26.040Z,29.71
2022-08-17T08:54:01.949Z,29.60
2022-08-17T08:56:36.874Z,29.04
2022-08-17T08:59:16.725Z,29.24
2022-08-17T09:01:56.103Z,29.41
2022-08-17T09:05:13.007Z,28.85
2022-08-17T09:07:44.418Z,29.44
2022-08-17T09:10:21.987Z,28.91
2022-08-17T09:13:09.330Z,29.13
2022-08-17T09:15:45.186Z,29.05
2022-08-17T09:19:00.203Z,29.47
2022-08-17T09:21:14.359Z,28.96
2022-08-17T09:23:50.944Z,29.22
2022-08-17T09:26:22.103Z,29.20
2022-08-17T09:28:52.142Z,29.24
2022-08-17T09:31:31.299Z,29.52
2022-08-17T09:34:03.686Z,29.30
2022-08-17T09:36:36.351Z,29.72
2022-08-17T09:39:08.387Z,29.86
2022-08-17T09:41:49.318Z,30.58
2022-08-17T09:44:25.222Z,29.98
2022-08-17T09:47:00.271Z,30.44
2022-08-17T09:49:32.760Z,30.33
2022-08-17T09:52:07.084Z,30.56
2022-08-17T09:54:39.969Z,30.15
2022-08-17T09:57:29.662Z,30.37
2022-08-17T10:00:12.506Z,30.25
2022-08-17T10:03:08.362Z,30.08
2022-08-17T10:05:43.435Z,30.07
2022-08-17T10:08:22.894Z,30.34
2022-08-17T10:11:01.924Z,30.31
2022-08-17T10:13:38.652Z,29.63
2022-08-17T10:16:15.496Z,29.59
2022-08-17T10:18:56.861Z,29.75
2022-08-17T10:21:26.030Z,29.73
2022-08-17T10:24:03.085Z,29.83
2022-08-17T10:26:43.053Z,30.25
2022-08-17T10:29:28.977Z,29.76
2022-08-17T10:32:00.144Z,30.04
2022-08-17T10:34:46.210Z,30.60
2022-08-17T10:37:38.770Z,30.45
2022-08-17T10:40:22.445Z,30.25
2022-08-17T10:42:56.869Z,30.63
2022-08-17T10:45:29.561Z,30.61
2022-08-17T10:48:05.358Z,30.77
2022-08-17T10:50:47.232Z,30.19
2022-08-17T10:53:46.698Z,30.33
2022-08-17T10:56:22.937Z,30.24
2022-08-17T10:58:52.362Z,30.19
2022-08-17T11:01:21.611Z,29.92
2022-08-17T11:03:51.079Z,30.45
2022-08-17T11:06:26.169Z,30.21
2022-08-17T11:09:31.570Z,30.49
2022-08-17T11:12:26.817Z,30.94
2022-08-17T11:15:17.821Z,31.10
2022-08-17T11:18:17.587Z,30.53
2022-08-17T11:21:21.941Z,30.38
2022-08-17T11:24:11.871Z,30.69
2022-08-17T11:26:41.189Z,30.13
2022-08-17T11:29:20.969Z,30.54
2022-08-17T11:32:01.987Z,30.32
2022-08-17T11:34:32.160Z,29.92
2022-08-17T11:37:27.706Z,29.70
2022-08-17T11:40:13.248Z,30.00
2022-08-17T11:42:52.724Z,30.50
2022-08-17T11:45:45.232Z,30.22
2022-08-17T11:48:28.563Z,30.21
2022-08-17T11:51:00.753Z,30.17
2022-08-17T11:54:21.583Z,29.89
2022-08-17T11:56:48.374Z,29.91
2022-08-17T11:59:51.485Z,30.81
2022-08-17T12:02:38.556Z,30.09
2022-08-17T12:05:27.501Z,30.66
2022-08-17T12:08:06.872Z,30.47
2022-08-17T12:10:36.602Z,29.91
2022-08-17T12:13:07.418Z,30.11
2022-08-17T12:15:37.670Z,29.87
2022-08-17T12:18:05.157Z,29.45
2022-08-17T12:20:34.583Z,30.32
2022-08-17T12:23:09.614Z,30.66
2022-08-17T12:25:43.148Z,30.25
2022-08-17T12:28:23.060Z,30.47
2022-08-17T12:30:52.090Z,30.35
2022-08-17T12:33:25.265Z,30.04
2022-08-17T12:35:59.650Z,30.07
2022-08-17T12:38:32.242Z,30.08
2022-08-17T12:41:01.338Z,30.03
2022-08-17T12:43:30.208Z,30.19
2022-08-17T12:45:59.696Z,32.75
2022-08-17T12:48:28.928Z,31.06
2022-08-17T12:51:01.226Z,30.61
2022-08-17T12:53:30.896Z,31.27
2022-08-17T12:55:59.095Z,30.77
2022-08-17T12:58:31.580Z,30.24
2022-08-17T13:01:02.348Z,30.37
2022-08-17T13:03:37.199Z,30.21
2022-08-17T13:06:06.647Z,31.12
2022-08-17T13:08:36.546Z,30.31
2022-08-17T13:11:07.495Z,30.49
2022-08-17T13:13:38.987Z,29.96
2022-08-17T13:16:14.974Z,30.58
2022-08-17T13:18:45.381Z,30.14
2022-08-17T13:21:23.180Z,29.95
2022-08-17T13:23:59.348Z,30.40
2022-08-17T13:26:31.652Z,30.72
2022-08-17T13:29:01.673Z,29.87
2022-08-17T13:31:41.400Z,30.48
2022-08-17T13:34:34.613Z,30.41
2022-08-17T13:37:35.436Z,29.53
2022-08-17T13:40:31.994Z,29.61
2022-08-17T13:42:59.423Z,30.02
2022-08-17T13:46:07.367Z,29.53
2022-08-17T13:48:34.940Z,29.97
2022-08-17T13:51:31.287Z,29.38
2022-08-17T13:54:02.843Z,29.15
2022-08-17T13:56:38.825Z,28.80
2022-08-17T13:59:10.965Z,29.02
2022-08-17T14:01:42.769Z,27.94
2022-08-17T14:04:13.787Z,27.90
2022-08-17T14:06:53.335Z,27.79
2022-08-17T14:09:23.581Z,27.57
2022-08-17T14:11:51.345Z,27.59
2022-08-17T14:14:20.317Z,27.62
2022-08-17T14:16:49.279Z,27.96
2022-08-17T14:19:16.816Z,27.41
2022-08-17T14:21:46.489Z,28.24
2022-08-17T14:24:19.102Z,28.34
2022-08-17T14:26:46.701Z,28.43
2022-08-17T14:29:15.559Z,27.32
2022-08-17T14:31:43.183Z,27.64
2022-08-17T14:34:22.515Z,27.53
2022-08-17T14:36:51.393Z,27.17
2022-08-17T14:39:19.482Z,27.30
2022-08-17T14:41:47.156Z,27.18
2022-08-17T14:44:14.631Z,27.61
2022-08-17T14:46:43.924Z,27.00
2022-08-17T14:49:13.154Z,28.42
2022-08-17T14:51:43.866Z,27.94
2022-08-17T14:54:29.433Z,28.00
2022-08-17T14:57:11.580Z,30.30
2022-08-17T14:59:47.696Z,30.90
2022-08-17T15:02:18.304Z,32.88
2022-08-17T15:04:45.883Z,32.67
2022-08-17T15:07:14.946Z,33.53
2022-08-17T15:09:42.549Z,35.08
2022-08-17T15:12:15.857Z,35.92
2022-08-17T15:14:43.263Z,36.46
2022-08-17T15:17:10.634Z,36.36
2022-08-17T15:19:38.056Z,36.77
2022-08-17T15:22:06.822Z,36.74
2022-08-17T15:24:35.700Z,37.21
2022-08-17T15:27:03.109Z,38.08
2022-08-17T15:29:30.568Z,39.20
2022-08-17T15:32:00.699Z,39.77
2022-08-17T15:34:28.370Z,39.51
2022-08-17T15:36:55.823Z,39.66
2022-08-17T15:39:23.269Z,39.87
2022-08-17T15:41:58.780Z,40.27
2022-08-17T15:44:30.202Z,39.74
2022-08-17T15:47:02.545Z,39.34
2022-08-17T15:49:29.953Z,39.29
2022-08-17T15:51:57.399Z,39.87
2022-08-17T15:54:24.803Z,39.08
2022-08-17T15:57:03.600Z,39.67
2022-08-17T15:59:31.040Z,40.17
2022-08-17T16:03:15.301Z,41.19
2022-08-17T16:04:45.864Z,40.82
2022-08-17T16:07:15.431Z,40.92
2022-08-17T16:09:42.886Z,40.88
2022-08-17T16:12:13.622Z,40.57
2022-08-17T16:14:41.109Z,41.46
2022-08-17T16:17:39.003Z,40.85
2022-08-17T16:19:56.074Z,41.04
2022-08-17T16:22:31.230Z,40.71
2022-08-17T16:24:59.051Z,40.75
2022-08-17T16:27:27.928Z,41.08
2022-08-17T16:29:55.586Z,40.95
2022-08-17T16:32:31.842Z,41.27
2022-08-17T16:35:02.763Z,41.72
2022-08-17T16:37:30.528Z,41.49
2022-08-17T16:40:01.822Z,41.63
2022-08-17T16:42:32.628Z,41.82
2022-08-17T16:45:04.717Z,41.61
2022-08-17T16:47:32.329Z,42.12
2022-08-17T16:50:00.152Z,42.38
2022-08-17T16:52:32.509Z,41.82
2022-08-17T16:55:01.907Z,42.27
2022-08-17T16:57:30.942Z,41.93
2022-08-17T16:59:58.979Z,42.13
2022-08-17T17:02:31.366Z,41.57
2022-08-17T17:05:05.696Z,42.78
2022-08-17T17:07:52.995Z,42.62
2022-08-17T17:10:29.187Z,42.96
2022-08-17T17:13:03.730Z,42.54
2022-08-17T17:15:45.696Z,42.40
2022-08-17T17:18:15.999Z,42.82
2022-08-17T17:20:52.472Z,42.33
2022-08-17T17:23:35.283Z,42.27
2022-08-17T17:26:11.752Z,42.29
2022-08-17T17:28:53.018Z,42.54
2022-08-17T17:31:22.711Z,42.67
2022-08-17T17:33:51.860Z,42.72
2022-08-17T17:36:26.124Z,43.42
2022-08-17T17:38:58.692Z,42.35
2022-08-17T17:41:30.479Z,41.33
2022-08-17T17:44:07.566Z,41.27
2022-08-17T17:46:39.622Z,40.13
2022-08-17T17:49:07.039Z,40.47
2022-08-17T17:52:02.912Z,40.29
2022-08-17T17:54:43.716Z,40.17
2022-08-17T17:57:19.728Z,40.24
2022-08-17T17:59:56.228Z,39.68
2022-08-17T18:02:37.808Z,39.61
2022-08-17T18:05:17.603Z,40.43
2022-08-17T18:07:52.881Z,39.41
2022-08-17T18:10:30.544Z,40.02
2022-08-17T18:13:08.336Z,40.01
2022-08-17T18:15:44.212Z,39.75
2022-08-17T18:18:36.476Z,39.42
2022-08-17T18:21:10.186Z,40.19
2022-08-17T18:23:45.505Z,40.01
2022-08-17T18:26:13.005Z,40.09
2022-08-17T18:28:42.057Z,39.99
2022-08-17T18:31:15.753Z,40.03
2022-08-17T18:33:44.851Z,40.18
2022-08-17T18:36:25.649Z,40.19
2022-08-17T18:39:11.013Z,39.60
2022-08-17T18:41:42.240Z,39.23
2022-08-17T18:44:23.565Z,39.04
2022-08-17T18:47:07.218Z,39.01
2022-08-17T18:49:35.494Z,39.73
2022-08-17T18:52:13.994Z,39.37
2022-08-17T18:54:59.520Z,39.38
2022-08-17T18:57:31.859Z,38.99
2022-08-17T18:59:59.833Z,39.54
2022-08-17T19:02:45.055Z,39.66
2022-08-17T19:05:27.453Z,38.96
2022-08-17T19:08:13.852Z,38.76
2022-08-17T19:10:46.149Z,39.28
2022-08-17T19:13:24.025Z,39.32
2022-08-17T19:16:12.247Z,40.02
2022-08-17T19:18:50.740Z,39.47
2022-08-17T19:21:22.969Z,39.27
2022-08-17T19:23:55.770Z,39.77
2022-08-17T19:26:53.398Z,39.40
2022-08-17T19:29:19.612Z,40.29
2022-08-17T19:31:50.315Z,40.97
2022-08-17T19:34:30.018Z,40.09
2022-08-17T19:37:05.873Z,40.07
2022-08-17T19:39:42.955Z,40.02
2022-08-17T19:42:16.308Z,39.74
2022-08-17T19:44:54.829Z,39.43
2022-08-17T19:47:53.186Z,39.35
2022-08-17T19:50:25.530Z,39.02
2022-08-17T19:52:59.472Z,38.79
2022-08-17T19:55:36.933Z,39.19
2022-08-17T19:58:11.142Z,38.82
2022-08-17T20:00:50.580Z,39.03
2022-08-17T20:03:23.157Z,38.48
2022-08-17T20:06:11.999Z,38.32
2022-08-17T20:08:57.136Z,38.17
2022-08-17T20:11:31.552Z,38.55
2022-08-17T20:14:04.095Z,38.18
2022-08-17T20:16:33.161Z,37.90
2022-08-17T20:19:04.898Z,38.14
2022-08-17T20:21:40.489Z,38.34
2022-08-17T20:24:20.844Z,37.96
2022-08-17T20:26:58.326Z,37.80
2022-08-17T20:29:39.604Z,37.43
2022-08-17T20:32:24.450Z,37.24
2022-08-17T20:35:02.965Z,37.15
2022-08-17T20:37:34.119Z,37.17
2022-08-17T20:40:21.127Z,37.29
2022-08-17T20:42:49.051Z,36.58
2022-08-17T20:45:50.781Z,36.67
2022-08-17T20:48:37.327Z,36.87
2022-08-17T20:51:25.660Z,36.64
2022-08-17T20:54:28.540Z,36.17
2022-08-17T20:56:58.866Z,36.47
2022-08-17T20:59:54.902Z,36.63
2022-08-17T21:02:24.676Z,36.02
2022-08-17T21:05:34.344Z,36.15
2022-08-17T21:08:13.649Z,36.79
2022-08-17T21:10:43.713Z,35.86
2022-08-17T21:13:52.579Z,36.09
2022-08-17T21:16:39.058Z,35.55
2022-08-17T21:19:22.203Z,35.81
2022-08-17T21:22:01.394Z,35.62
2022-08-17T21:24:42.595Z,35.60
2022-08-17T21:27:28.579Z,35.75
2022-08-17T21:30:20.763Z,35.06
2022-08-17T21:33:23.191Z,34.95
2022-08-17T21:35:53.949Z,35.84
2022-08-17T21:38:34.549Z,35.35
2022-08-17T21:41:02.163Z,35.17
2022-08-17T21:43:34.044Z,35.29
2022-08-17T21:46:04.430Z,35.45
2022-08-17T21:48:40.687Z,35.28
2022-08-17T21:51:12.357Z,35.08
2022-08-17T21:53:46.871Z,35.16
2022-08-17T21:56:24.258Z,35.44
2022-08-17T21:58:59.662Z,35.30
2022-08-17T22:01:30.506Z,35.89
2022-08-17T22:04:01.503Z,35.79
2022-08-17T22:06:35.701Z,35.55
2022-08-17T22:09:16.980Z,35.52
2022-08-17T22:11:50.479Z,35.18
2022-08-17T22:14:19.870Z,35.11
2022-08-17T22:16:48.757Z,35.34
2022-08-17T22:19:16.416Z,35.26
2022-08-17T22:21:43.821Z,35.25
2022-08-17T22:24:18.447Z,34.93
2022-08-17T22:27:02.696Z,34.83
2022-08-17T22:29:53.331Z,34.99
2022-08-17T22:32:34.176Z,34.59
2022-08-17T22:35:32.286Z,34.80
2022-08-17T22:38:30.729Z,34.82
2022-08-17T22:41:30.343Z,34.49
2022-08-17T22:43:58.795Z,34.60
2022-08-17T22:46:27.640Z,34.71
2022-08-17T22:48:57.403Z,34.53
2022-08-17T22:51:28.417Z,34.13
2022-08-17T22:54:00.087Z,34.44
2022-08-17T22:56:27.702Z,34.11
2022-08-17T22:58:58.863Z,34.43
2022-08-17T23:01:31.011Z,34.13
2022-08-17T23:04:00.421Z,34.22
2022-08-17T23:06:28.645Z,33.93
2022-08-17T23:08:56.381Z,34.31
2022-08-17T23:11:42.830Z,35.09
2022-08-17T23:14:13.391Z,34.61
2022-08-17T23:16:42.944Z,34.26
2022-08-17T23:19:11.212Z,34.26
2022-08-17T23:21:39.076Z,34.04
2022-08-17T23:24:07.045Z,33.99
2022-08-17T23:26:35.958Z,33.79
2022-08-17T23:29:03.710Z,33.84
2022-08-17T23:31:31.527Z,33.97
2022-08-17T23:34:00.954Z,33.85
2022-08-17T23:36:28.341Z,33.76
2022-08-17T23:38:55.749Z,33.66
2022-08-17T23:41:24.072Z,33.46
2022-08-17T23:43:52.935Z,33.67
2022-08-17T23:46:20.446Z,33.16
2022-08-17T23:48:48.228Z,33.49
2022-08-17T23:51:20.995Z,33.59
2022-08-17T23:53:51.858Z,33.40
2022-08-17T23:56:19.459Z,33.26
2022-08-17T23:58:46.831Z,33.26
